createdAt,value
2018-10-21T00:01:32.827Z,11.70
2018-10-21T00:04:02.464Z,11.70
2018-10-21T00:06:31.494Z,11.80
2018-10-21T00:09:00.598Z,11.80
2018-10-21T00:11:29.272Z,11.80
2018-10-21T00:13:58.197Z,11.80
2018-10-21T00:16:26.776Z,11.80
2018-10-21T00:18:55.578Z,11.80
2018-10-21T00:21:24.373Z,11.80
2018-10-21T00:23:53.666Z,11.80
2018-10-21T00:26:22.352Z,11.80
2018-10-21T00:28:51.484Z,11.90
2018-10-21T00:31:20.521Z,11.80
2018-10-21T00:33:49.581Z,11.80
2018-10-21T00:36:18.456Z,11.90
2018-10-21T00:38:47.626Z,11.90
2018-10-21T00:41:16.231Z,11.90
2018-10-21T00:43:45.217Z,11.90
2018-10-21T00:46:13.790Z,11.90
2018-10-21T00:48:42.582Z,11.90
2018-10-21T00:51:11.209Z,11.90
2018-10-21T00:53:39.978Z,11.90
2018-10-21T00:56:08.690Z,11.80
2018-10-21T00:58:37.245Z,11.80
2018-10-21T01:01:06.688Z,11.80
2018-10-21T01:03:35.869Z,11.80
2018-10-21T01:06:08.047Z,11.90
2018-10-21T01:08:37.036Z,11.90
2018-10-21T01:11:06.228Z,11.90
2018-10-21T01:13:34.995Z,11.90
2018-10-21T01:16:04.390Z,11.90
2018-10-21T01:18:34.316Z,11.80
2018-10-21T01:21:03.029Z,11.80
2018-10-21T01:23:32.684Z,11.80
2018-10-21T01:26:01.240Z,11.80
2018-10-21T01:28:30.374Z,11.80
2018-10-21T01:30:59.584Z,11.70
2018-10-21T01:33:28.516Z,11.70
2018-10-21T01:35:57.286Z,11.80
2018-10-21T01:38:26.440Z,11.80
2018-10-21T01:40:57.164Z,11.70
2018-10-21T01:43:28.229Z,11.70
2018-10-21T01:45:57.197Z,11.80
2018-10-21T01:48:27.129Z,11.80
2018-10-21T01:50:56.346Z,11.80
2018-10-21T01:53:25.850Z,11.80
2018-10-21T01:55:54.405Z,11.80
2018-10-21T01:58:23.222Z,11.80
2018-10-21T02:00:51.794Z,11.80
2018-10-21T02:03:21.405Z,11.70
2018-10-21T02:05:50.068Z,11.70
2018-10-21T02:08:19.005Z,11.70
2018-10-21T02:10:47.542Z,11.70
2018-10-21T02:13:16.772Z,11.70
2018-10-21T02:15:45.456Z,11.60
2018-10-21T02:18:14.387Z,11.60
2018-10-21T02:20:42.953Z,11.50
2018-10-21T02:23:13.930Z,11.50
2018-10-21T02:25:42.508Z,11.50
2018-10-21T02:28:11.356Z,11.50
2018-10-21T02:30:39.910Z,11.50
2018-10-21T02:33:08.771Z,11.40
2018-10-21T02:35:37.295Z,11.40
2018-10-21T02:38:06.278Z,11.40
2018-10-21T02:41:44.577Z,11.40
2018-10-21T02:44:16.848Z,11.50
2018-10-21T02:46:46.161Z,11.40
2018-10-21T02:49:15.578Z,11.40
2018-10-21T02:51:48.381Z,11.40
2018-10-21T02:54:21.285Z,11.40
2018-10-21T02:56:50.042Z,11.40
2018-10-21T02:59:19.439Z,11.40
2018-10-21T03:01:47.978Z,11.40
2018-10-21T03:04:17.141Z,11.40
2018-10-21T03:06:45.695Z,11.40
2018-10-21T03:09:15.196Z,11.30
2018-10-21T03:11:43.877Z,11.30
2018-10-21T03:14:12.860Z,11.30
2018-10-21T03:16:41.443Z,11.20
2018-10-21T03:19:10.279Z,11.20
2018-10-21T03:21:39.011Z,11.10
2018-10-21T03:24:07.807Z,11.00
2018-10-21T03:26:37.333Z,11.00
2018-10-21T03:29:06.071Z,11.00
2018-10-21T03:31:35.347Z,10.90
2018-10-21T03:34:04.307Z,10.90
2018-10-21T03:36:32.765Z,10.80
2018-10-21T03:39:02.265Z,10.80
2018-10-21T03:41:30.752Z,10.80
2018-10-21T03:43:59.601Z,10.80
2018-10-21T03:46:31.315Z,10.80
2018-10-21T03:49:00.219Z,10.80
2018-10-21T03:51:28.970Z,10.80
2018-10-21T03:53:57.511Z,10.80
2018-10-21T03:56:26.454Z,10.90
2018-10-21T03:58:55.139Z,11.00
2018-10-21T04:01:23.764Z,11.00
2018-10-21T04:03:53.377Z,11.00
2018-10-21T04:06:21.930Z,11.10
2018-10-21T04:08:50.794Z,11.10
2018-10-21T04:11:19.411Z,11.10
2018-10-21T04:13:48.517Z,11.20
2018-10-21T04:16:17.148Z,11.20
2018-10-21T04:18:46.692Z,11.20
2018-10-21T04:21:15.264Z,11.20
2018-10-21T04:23:44.235Z,11.20
2018-10-21T04:26:12.803Z,11.20
2018-10-21T04:28:41.513Z,11.20
2018-10-21T04:31:10.095Z,11.20
2018-10-21T04:33:43.873Z,11.20
2018-10-21T04:36:14.386Z,11.20
2018-10-21T04:38:54.644Z,11.20
2018-10-21T04:41:23.361Z,11.20
2018-10-21T04:43:52.197Z,11.20
2018-10-21T04:46:20.947Z,11.20
2018-10-21T04:48:49.695Z,11.20
2018-10-21T04:51:18.257Z,11.20
2018-10-21T04:53:47.089Z,11.10
2018-10-21T04:56:16.197Z,11.00
2018-10-21T04:58:45.298Z,11.00
2018-10-21T05:01:13.873Z,11.00
2018-10-21T05:03:42.447Z,11.00
2018-10-21T05:06:11.896Z,10.90
2018-10-21T05:08:40.431Z,10.90
2018-10-21T05:11:09.753Z,10.90
2018-10-21T05:13:38.441Z,10.90
2018-10-21T05:16:07.252Z,10.90
2018-10-21T05:18:35.791Z,11.00
2018-10-21T05:21:04.781Z,10.90
2018-10-21T05:23:33.823Z,11.00
2018-10-21T05:26:02.533Z,11.00
2018-10-21T05:28:31.079Z,11.00
2018-10-21T05:30:59.674Z,11.10
2018-10-21T05:33:29.474Z,11.10
2018-10-21T05:35:58.200Z,11.10
2018-10-21T05:38:27.048Z,11.10
2018-10-21T05:40:55.754Z,11.10
2018-10-21T05:43:24.774Z,11.00
2018-10-21T05:45:53.988Z,11.00
2018-10-21T05:48:22.575Z,11.00
2018-10-21T05:50:51.424Z,10.90
2018-10-21T05:53:20.104Z,10.90
2018-10-21T05:55:49.380Z,10.90
2018-10-21T05:58:18.540Z,10.80
2018-10-21T06:00:47.780Z,10.70
2018-10-21T06:03:16.288Z,10.70
2018-10-21T06:05:47.433Z,10.60
2018-10-21T06:08:16.217Z,10.60
2018-10-21T06:10:45.456Z,10.60
2018-10-21T06:13:14.543Z,10.50
2018-10-21T06:15:43.165Z,10.40
2018-10-21T06:18:22.320Z,10.40
2018-10-21T06:20:54.206Z,10.50
2018-10-21T06:23:22.975Z,10.50
2018-10-21T06:25:51.868Z,10.50
2018-10-21T06:28:21.512Z,10.50
2018-10-21T06:30:50.456Z,10.60
2018-10-21T06:33:19.040Z,10.70
2018-10-21T06:35:47.830Z,10.80
2018-10-21T06:38:16.451Z,10.90
2018-10-21T06:40:45.005Z,10.90
2018-10-21T06:43:14.318Z,11.00
2018-10-21T06:45:44.311Z,11.00
2018-10-21T06:48:12.843Z,11.10
2018-10-21T06:50:41.782Z,11.10
2018-10-21T06:53:10.452Z,11.20
2018-10-21T06:55:39.372Z,11.20
2018-10-21T06:58:08.063Z,11.20
2018-10-21T07:00:37.034Z,11.20
2018-10-21T07:03:05.714Z,11.30
2018-10-21T07:06:16.512Z,11.30
2018-10-21T07:08:46.124Z,11.30
2018-10-21T07:11:15.132Z,11.40
2018-10-21T07:13:44.151Z,11.30
2018-10-21T07:16:13.580Z,11.30
2018-10-21T07:18:42.924Z,11.40
2018-10-21T07:21:11.920Z,11.40
2018-10-21T07:23:40.904Z,11.50
2018-10-21T07:26:09.721Z,11.50
2018-10-21T07:28:38.568Z,11.60
2018-10-21T07:31:07.385Z,11.70
2018-10-21T07:33:36.068Z,11.70
2018-10-21T07:36:05.032Z,11.70
2018-10-21T07:38:33.573Z,11.80
2018-10-21T07:41:02.385Z,11.80
2018-10-21T07:43:30.995Z,11.90
2018-10-21T07:45:59.775Z,11.80
2018-10-21T07:48:28.484Z,11.90
2018-10-21T07:50:58.183Z,11.90
2018-10-21T07:53:26.921Z,12.00
2018-10-21T07:55:55.985Z,12.10
2018-10-21T07:58:24.558Z,12.10
2018-10-21T08:00:53.539Z,12.20
2018-10-21T08:03:22.161Z,12.30
2018-10-21T08:06:03.417Z,12.40
2018-10-21T08:08:32.994Z,12.50
2018-10-21T08:11:02.005Z,12.50
2018-10-21T08:13:30.867Z,12.60
2018-10-21T08:16:00.304Z,12.60
2018-10-21T08:18:28.871Z,12.40
2018-10-21T08:20:57.722Z,12.50
2018-10-21T08:23:26.275Z,12.70
2018-10-21T08:25:55.597Z,12.70
2018-10-21T08:28:24.735Z,12.80
2018-10-21T08:30:53.556Z,13.00
2018-10-21T08:33:22.231Z,13.10
2018-10-21T08:35:51.149Z,13.20
2018-10-21T08:38:19.704Z,13.30
2018-10-21T08:40:49.124Z,13.40
2018-10-21T08:43:17.725Z,13.50
2018-10-21T08:45:48.004Z,13.60
2018-10-21T08:48:16.659Z,13.70
2018-10-21T08:50:49.881Z,13.80
2018-10-21T08:53:18.467Z,13.90
2018-10-21T08:55:47.563Z,14.00
2018-10-21T08:58:16.172Z,14.10
2018-10-21T09:00:44.945Z,14.10
2018-10-21T09:03:15.694Z,14.20
2018-10-21T09:05:44.564Z,14.20
2018-10-21T09:08:13.161Z,14.20
2018-10-21T09:10:42.228Z,14.10
2018-10-21T09:13:10.882Z,14.30
2018-10-21T09:15:39.722Z,14.40
2018-10-21T09:18:08.336Z,14.50
2018-10-21T09:20:37.016Z,14.60
2018-10-21T09:23:05.580Z,14.60
2018-10-21T09:25:34.665Z,14.70
2018-10-21T09:28:03.593Z,14.70
2018-10-21T09:30:33.049Z,14.80
2018-10-21T09:33:02.194Z,14.90
2018-10-21T09:35:30.950Z,14.60
2018-10-21T09:37:59.533Z,14.30
2018-10-21T09:40:28.743Z,14.40
2018-10-21T09:42:57.309Z,14.10
2018-10-21T09:45:26.222Z,13.90
2018-10-21T09:47:54.833Z,14.20
2018-10-21T09:50:24.183Z,14.40
2018-10-21T09:52:53.459Z,14.20
2018-10-21T09:55:23.185Z,14.50
2018-10-21T09:57:51.969Z,14.60
2018-10-21T10:00:27.133Z,14.70
2018-10-21T10:03:00.948Z,14.80
2018-10-21T10:05:30.602Z,15.00
2018-10-21T10:07:59.494Z,15.20
2018-10-21T10:10:28.274Z,15.00
2018-10-21T10:12:57.234Z,14.80
2018-10-21T10:15:26.035Z,15.00
2018-10-21T10:17:55.368Z,15.10
2018-10-21T10:20:24.395Z,15.10
2018-10-21T10:22:52.980Z,14.70
2018-10-21T10:25:21.778Z,14.50
2018-10-21T10:27:50.320Z,14.30
2018-10-21T10:30:19.206Z,14.30
2018-10-21T10:32:48.096Z,14.30
2018-10-21T10:35:17.019Z,14.20
2018-10-21T10:37:45.544Z,14.20
2018-10-21T10:40:15.348Z,14.20
2018-10-21T10:42:44.188Z,14.20
2018-10-21T10:45:12.890Z,14.20
2018-10-21T10:47:41.538Z,14.20
2018-10-21T10:50:12.279Z,14.30
2018-10-21T10:52:41.283Z,14.20
2018-10-21T10:55:10.579Z,14.20
2018-10-21T10:57:39.517Z,14.20
2018-10-21T11:00:10.295Z,14.20
2018-10-21T11:02:38.880Z,14.30
2018-10-21T11:05:08.342Z,14.40
2018-10-21T11:07:37.002Z,14.40
2018-10-21T11:10:08.949Z,14.40
2018-10-21T11:12:37.538Z,14.40
2018-10-21T11:15:07.895Z,14.40
2018-10-21T11:17:38.127Z,14.30
2018-10-21T11:20:06.919Z,14.30
2018-10-21T11:22:35.547Z,14.30
2018-10-21T11:25:05.430Z,14.20
2018-10-21T11:27:34.057Z,14.10
2018-10-21T11:30:02.686Z,14.00
2018-10-21T11:32:31.298Z,13.90
2018-10-21T11:35:00.839Z,13.90
2018-10-21T11:37:30.003Z,13.90
2018-10-21T11:39:58.943Z,13.90
2018-10-21T11:42:28.256Z,13.90
2018-10-21T11:44:57.318Z,13.90
2018-10-21T11:47:26.299Z,13.90
2018-10-21T11:49:57.983Z,13.90
2018-10-21T11:52:26.944Z,13.90
2018-10-21T11:54:55.628Z,14.00
2018-10-21T11:57:24.434Z,14.10
2018-10-21T11:59:53.272Z,14.10
2018-10-21T12:02:22.448Z,14.10
2018-10-21T12:04:51.356Z,14.00
2018-10-21T12:07:20.823Z,14.00
2018-10-21T12:09:49.541Z,14.00
2018-10-21T12:12:18.431Z,14.00
2018-10-21T12:14:47.114Z,14.00
2018-10-21T12:17:15.962Z,14.00
2018-10-21T12:19:44.529Z,14.10
2018-10-21T12:22:13.877Z,14.20
2018-10-21T12:24:42.634Z,14.30
2018-10-21T12:27:11.288Z,14.30
2018-10-21T12:29:40.629Z,14.40
2018-10-21T12:32:09.185Z,14.30
2018-10-21T12:34:38.236Z,14.20
2018-10-21T12:37:07.293Z,14.10
2018-10-21T12:39:35.995Z,14.00
2018-10-21T12:42:04.579Z,13.90
2018-10-21T12:44:33.587Z,13.80
2018-10-21T12:47:02.183Z,13.70
2018-10-21T12:49:31.156Z,13.70
2018-10-21T12:52:00.356Z,13.70
2018-10-21T12:54:29.328Z,13.70
2018-10-21T12:56:57.957Z,13.70
2018-10-21T12:59:26.773Z,13.60
2018-10-21T13:01:55.410Z,13.60
2018-10-21T13:04:24.132Z,13.60
2018-10-21T13:06:53.010Z,13.60
2018-10-21T13:09:22.644Z,13.50
2018-10-21T13:11:51.245Z,13.50
2018-10-21T13:14:21.479Z,13.50
2018-10-21T13:16:50.140Z,13.50
2018-10-21T13:19:18.897Z,13.50
2018-10-21T13:21:49.167Z,13.60
2018-10-21T13:24:17.686Z,13.70
2018-10-21T13:26:46.545Z,13.70
2018-10-21T13:29:15.221Z,13.80
2018-10-21T13:31:44.353Z,13.70
2018-10-21T13:34:13.090Z,13.70
2018-10-21T13:36:41.911Z,13.80
2018-10-21T13:39:13.137Z,13.70
2018-10-21T13:41:42.569Z,13.70
2018-10-21T13:44:11.668Z,13.80
2018-10-21T13:46:41.043Z,13.80
2018-10-21T13:49:10.120Z,13.80
2018-10-21T13:51:39.272Z,13.90
2018-10-21T13:54:08.201Z,14.00
2018-10-21T13:56:36.789Z,14.10
2018-10-21T13:59:05.608Z,14.20
2018-10-21T14:01:34.306Z,14.30
2018-10-21T14:04:03.431Z,14.30
2018-10-21T14:06:31.987Z,14.30
2018-10-21T14:09:00.759Z,14.40
2018-10-21T14:11:29.564Z,14.40
2018-10-21T14:13:59.228Z,14.50
2018-10-21T14:16:27.900Z,14.50
2018-10-21T14:18:57.109Z,14.50
2018-10-21T14:21:25.749Z,14.50
2018-10-21T14:23:54.502Z,14.50
2018-10-21T14:26:23.400Z,14.50
2018-10-21T14:28:52.105Z,14.50
2018-10-21T14:31:20.713Z,14.50
2018-10-21T14:33:49.736Z,14.50
2018-10-21T14:36:19.062Z,14.50
2018-10-21T14:38:47.710Z,14.50
2018-10-21T14:41:16.322Z,14.50
2018-10-21T14:43:44.973Z,14.50
2018-10-21T14:46:13.699Z,14.50
2018-10-21T14:48:42.882Z,14.50
2018-10-21T14:51:11.526Z,14.50
2018-10-21T14:53:40.593Z,14.40
2018-10-21T14:56:09.962Z,14.30
2018-10-21T14:58:39.199Z,14.30
2018-10-21T15:01:08.074Z,14.20
2018-10-21T15:03:38.073Z,14.20
2018-10-21T15:06:09.563Z,14.10
2018-10-21T15:08:38.512Z,13.90
2018-10-21T15:11:07.295Z,13.90
2018-10-21T15:13:35.993Z,13.80
2018-10-21T15:16:06.125Z,13.70
2018-10-21T15:18:35.588Z,13.60
2018-10-21T15:21:04.527Z,13.60
2018-10-21T15:23:33.193Z,13.50
2018-10-21T15:26:02.340Z,13.40
2018-10-21T15:28:31.013Z,13.40
2018-10-21T15:31:02.596Z,13.30
2018-10-21T15:33:31.988Z,13.20
2018-10-21T15:36:01.370Z,13.20
2018-10-21T15:38:29.921Z,13.10
2018-10-21T15:40:59.746Z,13.10
2018-10-21T15:43:28.675Z,13.00
2018-10-21T15:45:58.617Z,12.90
2018-10-21T15:48:27.153Z,12.80
2018-10-21T15:50:56.402Z,12.80
2018-10-21T15:53:25.257Z,12.70
2018-10-21T15:55:54.157Z,12.60
2018-10-21T15:58:22.748Z,12.60
2018-10-21T16:00:51.509Z,12.50
2018-10-21T16:03:20.850Z,12.50
2018-10-21T16:05:49.416Z,12.40
2018-10-21T16:08:19.226Z,12.30
2018-10-21T16:10:48.166Z,12.20
2018-10-21T16:13:16.809Z,12.20
2018-10-21T16:15:46.326Z,12.10
2018-10-21T16:18:15.038Z,12.10
2018-10-21T16:20:43.929Z,12.10
2018-10-21T16:23:13.082Z,12.00
2018-10-21T16:25:41.750Z,11.90
2018-10-21T16:28:10.340Z,11.90
2018-10-21T16:30:38.862Z,11.80
2018-10-21T16:33:08.027Z,11.80
2018-10-21T16:35:37.764Z,11.70
2018-10-21T16:38:06.585Z,11.70
2018-10-21T16:40:35.168Z,11.60
2018-10-21T16:43:04.208Z,11.60
2018-10-21T16:45:32.828Z,11.50
2018-10-21T16:48:01.975Z,11.50
2018-10-21T16:50:32.252Z,11.50
2018-10-21T16:53:01.087Z,11.50
2018-10-21T16:55:29.820Z,11.40
2018-10-21T16:57:58.947Z,11.40
2018-10-21T17:00:27.709Z,11.30
2018-10-21T17:02:57.190Z,11.30
2018-10-21T17:05:25.929Z,11.30
2018-10-21T17:07:54.809Z,11.20
2018-10-21T17:10:25.202Z,11.20
2018-10-21T17:12:54.305Z,11.10
2018-10-21T17:15:23.453Z,11.10
2018-10-21T17:17:52.672Z,11.10
2018-10-21T17:20:21.427Z,11.10
2018-10-21T17:22:50.086Z,11.10
2018-10-21T17:25:18.785Z,11.00
2018-10-21T17:27:47.393Z,11.00
2018-10-21T17:30:18.262Z,11.00
2018-10-21T17:32:47.175Z,11.00
2018-10-21T17:35:17.416Z,11.00
2018-10-21T17:37:46.893Z,10.90
2018-10-21T17:40:16.667Z,10.90
2018-10-21T17:42:45.849Z,10.90
2018-10-21T17:45:15.663Z,10.80
2018-10-21T17:47:44.433Z,10.80
2018-10-21T17:50:14.486Z,10.70
2018-10-21T17:52:43.686Z,10.70
2018-10-21T17:55:13.845Z,10.70
2018-10-21T17:57:42.361Z,10.60
2018-10-21T18:00:13.186Z,10.60
2018-10-21T18:02:41.997Z,10.60
2018-10-21T18:05:12.934Z,10.50
2018-10-21T18:07:42.295Z,10.50
2018-10-21T18:10:11.971Z,10.40
2018-10-21T18:12:41.360Z,10.40
2018-10-21T18:15:11.056Z,10.30
2018-10-21T18:17:40.469Z,10.30
2018-10-21T18:20:11.475Z,10.30
2018-10-21T18:22:40.105Z,10.30
2018-10-21T18:25:10.109Z,10.30
2018-10-21T18:27:39.640Z,10.30
2018-10-21T18:30:09.573Z,10.30
2018-10-21T18:32:38.502Z,10.30
2018-10-21T18:35:08.980Z,10.20
2018-10-21T18:37:37.570Z,10.20
2018-10-21T18:40:07.909Z,10.20
2018-10-21T18:42:36.497Z,10.20
2018-10-21T18:45:07.129Z,10.10
2018-10-21T18:47:36.821Z,10.10
2018-10-21T18:50:07.576Z,10.10
2018-10-21T18:52:36.178Z,10.10
2018-10-21T18:55:05.637Z,10.10
2018-10-21T18:57:34.214Z,10.10
2018-10-21T19:00:03.764Z,10.10
2018-10-21T19:02:33.975Z,10.00
2018-10-21T19:05:02.544Z,9.90
2018-10-21T19:07:31.176Z,9.90
2018-10-21T19:10:00.302Z,9.80
2018-10-21T19:12:29.168Z,9.80
2018-10-21T19:14:58.246Z,9.70
2018-10-21T19:17:26.982Z,9.60
2018-10-21T19:19:56.548Z,9.60
2018-10-21T19:22:25.690Z,9.50
2018-10-21T19:24:54.560Z,9.50
2018-10-21T19:27:23.282Z,9.50
2018-10-21T19:29:52.413Z,9.50
2018-10-21T19:32:20.972Z,9.50
2018-10-21T19:34:49.520Z,9.60
2018-10-21T19:37:18.569Z,9.50
2018-10-21T19:39:47.119Z,9.40
2018-10-21T19:42:15.876Z,9.30
2018-10-21T19:44:44.429Z,9.30
2018-10-21T19:47:13.610Z,9.30
2018-10-21T19:49:42.150Z,9.20
2018-10-21T19:52:11.058Z,9.20
2018-10-21T19:54:40.688Z,9.20
2018-10-21T19:57:09.287Z,9.20
2018-10-21T19:59:38.310Z,9.20
2018-10-21T20:02:06.969Z,9.20
2018-10-21T20:04:35.591Z,9.20
2018-10-21T20:07:05.437Z,9.20
2018-10-21T20:09:34.050Z,9.20
2018-10-21T20:12:02.714Z,9.20
2018-10-21T20:14:31.266Z,9.20
2018-10-21T20:17:00.344Z,9.20
2018-10-21T20:19:28.883Z,9.20
2018-10-21T20:21:57.593Z,9.10
2018-10-21T20:24:26.431Z,9.10
2018-10-21T20:26:55.662Z,9.00
2018-10-21T20:29:24.314Z,9.00
2018-10-21T20:31:53.429Z,9.00
2018-10-21T20:34:22.115Z,9.00
2018-10-21T20:36:50.816Z,8.90
2018-10-21T20:39:19.866Z,8.80
2018-10-21T20:41:48.631Z,8.70
2018-10-21T20:44:18.952Z,8.70
2018-10-21T20:46:48.165Z,8.70
2018-10-21T20:49:18.133Z,8.60
2018-10-21T20:51:46.907Z,8.60
2018-10-21T20:54:15.699Z,8.60
2018-10-21T20:56:44.391Z,8.60
2018-10-21T20:59:12.950Z,8.60
2018-10-21T21:01:42.332Z,8.60
2018-10-21T21:04:11.370Z,8.60
2018-10-21T21:06:39.961Z,8.60
2018-10-21T21:09:09.229Z,8.60
2018-10-21T21:11:38.353Z,8.60
2018-10-21T21:14:07.054Z,8.70
2018-10-21T21:16:35.944Z,8.60
2018-10-21T21:19:04.535Z,8.60
2018-10-21T21:21:33.632Z,8.60
2018-10-21T21:24:02.393Z,8.60
2018-10-21T21:26:31.466Z,8.60
2018-10-21T21:29:00.030Z,8.50
2018-10-21T21:31:29.193Z,8.50
2018-10-21T21:33:57.762Z,8.40
2018-10-21T21:36:26.789Z,8.30
2018-10-21T21:38:55.435Z,8.20
2018-10-21T21:41:24.119Z,8.20
2018-10-21T21:43:52.814Z,8.20
2018-10-21T21:46:21.457Z,8.20
2018-10-21T21:48:50.577Z,8.20
2018-10-21T21:51:19.175Z,8.10
2018-10-21T21:53:47.946Z,8.10
2018-10-21T21:56:16.502Z,8.10
2018-10-21T21:58:45.526Z,8.10
2018-10-21T22:01:14.167Z,8.00
2018-10-21T22:03:42.712Z,8.00
2018-10-21T22:06:12.242Z,8.00
2018-10-21T22:08:40.787Z,8.00
2018-10-21T22:11:10.089Z,8.00
2018-10-21T22:13:38.689Z,7.90
2018-10-21T22:16:07.230Z,7.90
2018-10-21T22:18:36.039Z,7.80
2018-10-21T22:21:07.812Z,7.80
2018-10-21T22:23:36.323Z,7.70
2018-10-21T22:26:05.202Z,7.70
2018-10-21T22:28:33.758Z,7.70
2018-10-21T22:31:02.760Z,7.60
2018-10-21T22:33:31.292Z,7.60
2018-10-21T22:35:59.956Z,7.70
2018-10-21T22:38:28.819Z,7.70
2018-10-21T22:40:57.346Z,7.80
2018-10-21T22:43:25.985Z,7.80
2018-10-21T22:45:54.902Z,7.80
2018-10-21T22:48:23.505Z,7.80
2018-10-21T22:50:52.146Z,7.80
2018-10-21T22:53:20.701Z,7.80
2018-10-21T22:55:49.633Z,7.80
2018-10-21T22:58:18.265Z,7.80
2018-10-21T23:00:47.288Z,7.80
2018-10-21T23:03:15.832Z,7.80
2018-10-21T23:05:44.656Z,7.80
2018-10-21T23:08:13.173Z,7.80
2018-10-21T23:10:41.947Z,7.70
2018-10-21T23:13:10.830Z,7.60
2018-10-21T23:15:39.402Z,7.50
2018-10-21T23:18:08.245Z,7.50
2018-10-21T23:20:36.787Z,7.50
2018-10-21T23:23:05.496Z,7.60
2018-10-21T23:25:34.035Z,7.50
2018-10-21T23:28:02.799Z,7.50
2018-10-21T23:30:31.362Z,7.50
2018-10-21T23:33:00.113Z,7.50
2018-10-21T23:35:28.735Z,7.50
2018-10-21T23:37:57.244Z,7.50
2018-10-21T23:40:25.844Z,7.50
2018-10-21T23:42:55.920Z,7.40
2018-10-21T23:45:24.466Z,7.40
2018-10-21T23:47:53.266Z,7.50
2018-10-21T23:50:21.892Z,7.40
2018-10-21T23:52:50.826Z,7.40
2018-10-21T23:55:19.859Z,7.40
2018-10-21T23:57:48.454Z,7.40
